KTRM/TRM METAR and TAF weather

Enter ICAO airport designator
Station Type Date Time Source
KTRM METAR 2019/04/22 17:52 UTC NOAA

KTRM 221752Z AUTO 30011KT 10SM CLR 31/01 A2987 RMK AO2 SLP117 T03060006 10311 20189 58001


Station Type Date Time Source
KTRM Decoded METAR 2019/04/22 17:52 UTC NOAA

Palm Springs, Jacqueline Cochran Regional Airport, CA, United States (KTRM) 33-37-36N 116-09-34W
Apr 22, 2019 - 01:52 PM EDT / 2019.04.22 1752 UTC
Wind: from the WNW (300 degrees) at 13 MPH (11 KT):0
Visibility: 10 mile(s):0
Sky conditions: clear
Temperature: 87.1 F (30.6 C)
Dew Point: 33.1 F (0.6 C)
Relative Humidity: 14%
Pressure (altimeter): 29.87 in. Hg (1011 hPa)
Pressure tendency: 0.00 inches (0.1 hPa) lower than three hours ago
ob: KTRM 221752Z AUTO 30011KT 10SM CLR 31/01 A2987 RMK AO2 SLP117 T03060006 10311 20189 58001
cycle: 18

Station Type Date Time Source
KTRM TAF 2019/04/22 18:30 UTC NOAA

TAF KTRM 221729Z 2218/2318 33010KT P6SM SKC
FM221900 31013G23KT P6SM SKC

Example: see airport list